sensor_id;sensor_type;location;lat;lon;timestamp;temperature;humidity
70947;DHT22;58605;48.700;8.760;2023-09-19T00:01:43;19.00;80.20
70947;DHT22;58605;48.700;8.760;2023-09-19T00:04:14;19.10;80.00
70947;DHT22;58605;48.700;8.760;2023-09-19T00:06:40;19.00;79.80
70947;DHT22;58605;48.700;8.760;2023-09-19T00:09:07;19.00;79.90
70947;DHT22;58605;48.700;8.760;2023-09-19T00:11:36;19.00;79.90
70947;DHT22;58605;48.700;8.760;2023-09-19T00:14:04;18.90;79.90
70947;DHT22;58605;48.700;8.760;2023-09-19T00:16:34;18.90;79.90
70947;DHT22;58605;48.700;8.760;2023-09-19T00:19:02;18.90;80.00
70947;DHT22;58605;48.700;8.760;2023-09-19T00:21:31;18.90;80.40
70947;DHT22;58605;48.700;8.760;2023-09-19T00:23:57;18.90;80.00
70947;DHT22;58605;48.700;8.760;2023-09-19T00:26:23;18.90;79.90
70947;DHT22;58605;48.700;8.760;2023-09-19T00:28:52;18.90;80.00
70947;DHT22;58605;48.700;8.760;2023-09-19T00:31:18;18.80;80.30
70947;DHT22;58605;48.700;8.760;2023-09-19T00:33:53;18.80;80.10
70947;DHT22;58605;48.700;8.760;2023-09-19T00:36:20;18.80;80.20
70947;DHT22;58605;48.700;8.760;2023-09-19T00:38:47;18.80;80.50
70947;DHT22;58605;48.700;8.760;2023-09-19T00:41:27;18.90;80.50
70947;DHT22;58605;48.700;8.760;2023-09-19T00:43:56;18.90;80.30
70947;DHT22;58605;48.700;8.760;2023-09-19T00:46:22;18.90;80.20
70947;DHT22;58605;48.700;8.760;2023-09-19T00:48:49;18.80;80.20
70947;DHT22;58605;48.700;8.760;2023-09-19T00:51:15;18.80;79.80
70947;DHT22;58605;48.700;8.760;2023-09-19T00:53:47;18.80;80.10
70947;DHT22;58605;48.700;8.760;2023-09-19T00:56:13;18.90;80.30
70947;DHT22;58605;48.700;8.760;2023-09-19T00:58:39;18.90;79.80
70947;DHT22;58605;48.700;8.760;2023-09-19T01:01:06;18.90;80.00
70947;DHT22;58605;48.700;8.760;2023-09-19T01:03:33;18.90;79.70
70947;DHT22;58605;48.700;8.760;2023-09-19T01:05:59;18.80;79.90
70947;DHT22;58605;48.700;8.760;2023-09-19T01:08:26;18.80;79.90
70947;DHT22;58605;48.700;8.760;2023-09-19T01:11:01;18.80;79.60
70947;DHT22;58605;48.700;8.760;2023-09-19T01:13:34;18.70;80.00
70947;DHT22;58605;48.700;8.760;2023-09-19T01:16:07;18.70;80.00
70947;DHT22;58605;48.700;8.760;2023-09-19T01:18:43;18.70;80.00
70947;DHT22;58605;48.700;8.760;2023-09-19T01:21:15;18.70;80.00
70947;DHT22;58605;48.700;8.760;2023-09-19T01:27:15;18.70;80.00
70947;DHT22;58605;48.700;8.760;2023-09-19T01:29:46;18.80;80.10
70947;DHT22;58605;48.700;8.760;2023-09-19T01:32:17;19.00;78.90
70947;DHT22;58605;48.700;8.760;2023-09-19T01:34:48;19.00;79.30
70947;DHT22;58605;48.700;8.760;2023-09-19T01:37:14;18.90;79.30
70947;DHT22;58605;48.700;8.760;2023-09-19T01:39:46;18.90;79.40
70947;DHT22;58605;48.700;8.760;2023-09-19T01:42:21;18.90;79.20
70947;DHT22;58605;48.700;8.760;2023-09-19T01:44:55;19.00;79.00
70947;DHT22;58605;48.700;8.760;2023-09-19T01:47:28;19.00;79.00
70947;DHT22;58605;48.700;8.760;2023-09-19T01:50:02;19.00;78.80
70947;DHT22;58605;48.700;8.760;2023-09-19T01:52:38;19.00;79.20
70947;DHT22;58605;48.700;8.760;2023-09-19T01:55:09;19.00;78.90
70947;DHT22;58605;48.700;8.760;2023-09-19T01:57:42;18.90;79.40
70947;DHT22;58605;48.700;8.760;2023-09-19T02:03:36;18.80;79.00
70947;DHT22;58605;48.700;8.760;2023-09-19T02:06:04;18.80;78.90
70947;DHT22;58605;48.700;8.760;2023-09-19T02:08:31;18.70;79.00
70947;DHT22;58605;48.700;8.760;2023-09-19T02:11:00;18.70;79.10
70947;DHT22;58605;48.700;8.760;2023-09-19T02:13:26;18.70;79.20
70947;DHT22;58605;48.700;8.760;2023-09-19T02:15:54;18.70;79.20
70947;DHT22;58605;48.700;8.760;2023-09-19T02:18:20;18.80;78.80
70947;DHT22;58605;48.700;8.760;2023-09-19T02:20:47;18.90;78.70
70947;DHT22;58605;48.700;8.760;2023-09-19T02:23:13;18.90;78.70
70947;DHT22;58605;48.700;8.760;2023-09-19T02:25:41;19.00;78.40
70947;DHT22;58605;48.700;8.760;2023-09-19T02:28:09;19.10;77.40
70947;DHT22;58605;48.700;8.760;2023-09-19T02:30:35;19.20;77.20
70947;DHT22;58605;48.700;8.760;2023-09-19T02:33:03;19.10;77.70
70947;DHT22;58605;48.700;8.760;2023-09-19T02:35:29;19.10;77.60
70947;DHT22;58605;48.700;8.760;2023-09-19T02:38:02;19.00;78.10
70947;DHT22;58605;48.700;8.760;2023-09-19T02:40:31;19.00;78.40
70947;DHT22;58605;48.700;8.760;2023-09-19T02:43:01;18.90;78.40
70947;DHT22;58605;48.700;8.760;2023-09-19T02:45:27;18.90;78.50
70947;DHT22;58605;48.700;8.760;2023-09-19T02:47:54;18.80;78.90
70947;DHT22;58605;48.700;8.760;2023-09-19T02:50:21;18.70;79.60
70947;DHT22;58605;48.700;8.760;2023-09-19T02:52:47;18.60;79.80
70947;DHT22;58605;48.700;8.760;2023-09-19T02:55:19;18.70;78.90
70947;DHT22;58605;48.700;8.760;2023-09-19T02:57:49;18.60;80.00
70947;DHT22;58605;48.700;8.760;2023-09-19T03:00:17;18.70;78.90
70947;DHT22;58605;48.700;8.760;2023-09-19T03:02:47;18.70;79.50
70947;DHT22;58605;48.700;8.760;2023-09-19T03:05:14;18.70;79.30
70947;DHT22;58605;48.700;8.760;2023-09-19T03:07:40;18.70;79.00
70947;DHT22;58605;48.700;8.760;2023-09-19T03:10:08;18.70;79.20
70947;DHT22;58605;48.700;8.760;2023-09-19T03:12:36;18.70;79.00
70947;DHT22;58605;48.700;8.760;2023-09-19T03:15:03;18.60;79.50
70947;DHT22;58605;48.700;8.760;2023-09-19T03:17:30;18.60;79.70
70947;DHT22;58605;48.700;8.760;2023-09-19T03:19:56;18.70;79.60
70947;DHT22;58605;48.700;8.760;2023-09-19T03:22:23;18.60;80.00
70947;DHT22;58605;48.700;8.760;2023-09-19T03:24:50;18.60;80.00
70947;DHT22;58605;48.700;8.760;2023-09-19T03:27:16;18.60;79.90
70947;DHT22;58605;48.700;8.760;2023-09-19T03:29:44;18.50;80.20
70947;DHT22;58605;48.700;8.760;2023-09-19T03:32:10;18.50;80.20
70947;DHT22;58605;48.700;8.760;2023-09-19T03:34:37;18.40;80.50
70947;DHT22;58605;48.700;8.760;2023-09-19T03:37:08;18.40;81.20
70947;DHT22;58605;48.700;8.760;2023-09-19T03:39:34;18.40;80.40
70947;DHT22;58605;48.700;8.760;2023-09-19T03:42:01;18.20;81.00
70947;DHT22;58605;48.700;8.760;2023-09-19T03:44:28;18.30;81.00
70947;DHT22;58605;48.700;8.760;2023-09-19T03:46:56;18.20;81.50
70947;DHT22;58605;48.700;8.760;2023-09-19T03:49:22;18.20;81.80
70947;DHT22;58605;48.700;8.760;2023-09-19T03:51:49;18.30;81.70
70947;DHT22;58605;48.700;8.760;2023-09-19T03:54:15;18.30;81.50
70947;DHT22;58605;48.700;8.760;2023-09-19T03:56:42;18.30;81.70
70947;DHT22;58605;48.700;8.760;2023-09-19T03:59:09;18.30;81.60
70947;DHT22;58605;48.700;8.760;2023-09-19T04:01:35;18.30;81.80
70947;DHT22;58605;48.700;8.760;2023-09-19T04:04:03;18.30;82.20
70947;DHT22;58605;48.700;8.760;2023-09-19T04:06:40;18.30;82.50
70947;DHT22;58605;48.700;8.760;2023-09-19T04:09:06;18.30;82.50
70947;DHT22;58605;48.700;8.760;2023-09-19T04:11:33;18.30;83.10
70947;DHT22;58605;48.700;8.760;2023-09-19T04:13:59;18.30;82.10
70947;DHT22;58605;48.700;8.760;2023-09-19T04:16:28;18.40;82.30
70947;DHT22;58605;48.700;8.760;2023-09-19T04:18:54;18.40;82.00
70947;DHT22;58605;48.700;8.760;2023-09-19T04:21:22;18.50;81.60
70947;DHT22;58605;48.700;8.760;2023-09-19T04:23:48;18.70;80.70
70947;DHT22;58605;48.700;8.760;2023-09-19T04:26:14;18.90;80.50
70947;DHT22;58605;48.700;8.760;2023-09-19T04:28:42;18.80;80.90
70947;DHT22;58605;48.700;8.760;2023-09-19T04:31:09;18.70;81.10
70947;DHT22;58605;48.700;8.760;2023-09-19T04:33:37;18.70;81.30
70947;DHT22;58605;48.700;8.760;2023-09-19T04:36:04;18.70;81.60
70947;DHT22;58605;48.700;8.760;2023-09-19T04:38:34;19.00;80.60
70947;DHT22;58605;48.700;8.760;2023-09-19T04:41:00;19.00;80.30
70947;DHT22;58605;48.700;8.760;2023-09-19T04:43:26;18.90;80.50
70947;DHT22;58605;48.700;8.760;2023-09-19T04:45:52;18.90;81.00
70947;DHT22;58605;48.700;8.760;2023-09-19T04:48:21;18.70;81.30
70947;DHT22;58605;48.700;8.760;2023-09-19T04:50:49;18.50;81.90
70947;DHT22;58605;48.700;8.760;2023-09-19T04:53:16;18.00;83.70
70947;DHT22;58605;48.700;8.760;2023-09-19T04:55:45;17.70;85.40
70947;DHT22;58605;48.700;8.760;2023-09-19T04:58:12;17.60;86.00
70947;DHT22;58605;48.700;8.760;2023-09-19T05:00:38;17.60;85.80
70947;DHT22;58605;48.700;8.760;2023-09-19T05:03:04;17.70;85.90
70947;DHT22;58605;48.700;8.760;2023-09-19T05:05:31;17.80;85.80
70947;DHT22;58605;48.700;8.760;2023-09-19T05:07:58;17.80;85.60
70947;DHT22;58605;48.700;8.760;2023-09-19T05:10:25;17.80;85.80
70947;DHT22;58605;48.700;8.760;2023-09-19T05:12:54;17.90;85.70
70947;DHT22;58605;48.700;8.760;2023-09-19T05:15:21;17.90;85.50
70947;DHT22;58605;48.700;8.760;2023-09-19T05:17:51;18.00;85.30
70947;DHT22;58605;48.700;8.760;2023-09-19T05:20:17;18.10;85.00
70947;DHT22;58605;48.700;8.760;2023-09-19T05:22:59;18.10;85.00
70947;DHT22;58605;48.700;8.760;2023-09-19T05:25:28;18.30;83.10
70947;DHT22;58605;48.700;8.760;2023-09-19T05:27:57;17.70;84.30
70947;DHT22;58605;48.700;8.760;2023-09-19T05:30:24;17.30;85.20
70947;DHT22;58605;48.700;8.760;2023-09-19T05:32:50;16.90;86.00
70947;DHT22;58605;48.700;8.760;2023-09-19T05:35:17;16.80;86.00
70947;DHT22;58605;48.700;8.760;2023-09-19T05:37:43;16.50;87.90
70947;DHT22;58605;48.700;8.760;2023-09-19T05:40:11;16.40;87.60
70947;DHT22;58605;48.700;8.760;2023-09-19T05:42:38;16.40;87.40
70947;DHT22;58605;48.700;8.760;2023-09-19T05:45:08;16.40;87.70
70947;DHT22;58605;48.700;8.760;2023-09-19T05:47:34;16.60;87.50
70947;DHT22;58605;48.700;8.760;2023-09-19T05:50:00;16.70;86.00
70947;DHT22;58605;48.700;8.760;2023-09-19T05:52:26;16.80;86.20
70947;DHT22;58605;48.700;8.760;2023-09-19T05:54:52;16.90;85.50
70947;DHT22;58605;48.700;8.760;2023-09-19T05:57:18;17.10;85.20
70947;DHT22;58605;48.700;8.760;2023-09-19T05:59:44;17.20;83.60
70947;DHT22;58605;48.700;8.760;2023-09-19T06:02:12;17.30;83.40
70947;DHT22;58605;48.700;8.760;2023-09-19T06:04:38;17.40;82.70
70947;DHT22;58605;48.700;8.760;2023-09-19T06:07:06;17.40;81.40
70947;DHT22;58605;48.700;8.760;2023-09-19T06:09:32;17.20;81.40
70947;DHT22;58605;48.700;8.760;2023-09-19T06:11:59;17.30;81.70
70947;DHT22;58605;48.700;8.760;2023-09-19T06:14:29;17.50;81.20
70947;DHT22;58605;48.700;8.760;2023-09-19T06:16:56;17.60;80.40
70947;DHT22;58605;48.700;8.760;2023-09-19T06:19:24;17.60;80.20
70947;DHT22;58605;48.700;8.760;2023-09-19T06:21:52;17.60;80.40
70947;DHT22;58605;48.700;8.760;2023-09-19T06:24:19;17.40;80.60
70947;DHT22;58605;48.700;8.760;2023-09-19T06:26:47;17.30;81.50
70947;DHT22;58605;48.700;8.760;2023-09-19T06:29:13;17.10;82.40
70947;DHT22;58605;48.700;8.760;2023-09-19T06:31:40;17.10;83.10
70947;DHT22;58605;48.700;8.760;2023-09-19T06:34:07;17.00;83.10
70947;DHT22;58605;48.700;8.760;2023-09-19T06:36:34;16.90;84.10
70947;DHT22;58605;48.700;8.760;2023-09-19T06:39:00;16.90;84.30
70947;DHT22;58605;48.700;8.760;2023-09-19T06:41:26;16.90;84.20
70947;DHT22;58605;48.700;8.760;2023-09-19T06:43:53;16.80;83.50
70947;DHT22;58605;48.700;8.760;2023-09-19T06:46:19;16.90;83.30
70947;DHT22;58605;48.700;8.760;2023-09-19T06:48:46;17.00;83.20
70947;DHT22;58605;48.700;8.760;2023-09-19T06:51:13;17.00;83.70
70947;DHT22;58605;48.700;8.760;2023-09-19T06:53:43;17.00;83.10
70947;DHT22;58605;48.700;8.760;2023-09-19T06:56:09;17.00;83.30
70947;DHT22;58605;48.700;8.760;2023-09-19T06:58:36;16.90;84.20
70947;DHT22;58605;48.700;8.760;2023-09-19T07:01:02;16.90;85.20
70947;DHT22;58605;48.700;8.760;2023-09-19T07:03:29;17.00;84.80
70947;DHT22;58605;48.700;8.760;2023-09-19T07:05:55;17.00;84.20
70947;DHT22;58605;48.700;8.760;2023-09-19T07:08:22;17.10;84.40
70947;DHT22;58605;48.700;8.760;2023-09-19T07:10:49;17.10;85.00
70947;DHT22;58605;48.700;8.760;2023-09-19T07:13:20;17.10;85.10
70947;DHT22;58605;48.700;8.760;2023-09-19T07:15:46;17.10;85.40
70947;DHT22;58605;48.700;8.760;2023-09-19T07:18:13;17.10;84.70
70947;DHT22;58605;48.700;8.760;2023-09-19T07:20:40;17.00;85.20
70947;DHT22;58605;48.700;8.760;2023-09-19T07:23:11;17.00;85.70
70947;DHT22;58605;48.700;8.760;2023-09-19T07:25:40;17.10;86.00
70947;DHT22;58605;48.700;8.760;2023-09-19T07:28:08;17.00;85.40
70947;DHT22;58605;48.700;8.760;2023-09-19T07:30:36;17.00;85.30
70947;DHT22;58605;48.700;8.760;2023-09-19T07:33:03;17.10;85.00
70947;DHT22;58605;48.700;8.760;2023-09-19T07:35:31;17.10;83.80
70947;DHT22;58605;48.700;8.760;2023-09-19T07:37:57;17.20;83.60
70947;DHT22;58605;48.700;8.760;2023-09-19T07:40:24;17.20;83.70
70947;DHT22;58605;48.700;8.760;2023-09-19T07:42:52;17.30;82.90
70947;DHT22;58605;48.700;8.760;2023-09-19T07:45:20;17.30;83.40
70947;DHT22;58605;48.700;8.760;2023-09-19T07:47:46;17.30;82.30
70947;DHT22;58605;48.700;8.760;2023-09-19T07:50:13;17.40;83.00
70947;DHT22;58605;48.700;8.760;2023-09-19T07:52:39;17.50;83.00
70947;DHT22;58605;48.700;8.760;2023-09-19T07:55:06;17.60;81.20
70947;DHT22;58605;48.700;8.760;2023-09-19T07:57:35;17.70;82.10
70947;DHT22;58605;48.700;8.760;2023-09-19T08:00:02;17.70;80.20
70947;DHT22;58605;48.700;8.760;2023-09-19T08:02:34;17.80;80.80
70947;DHT22;58605;48.700;8.760;2023-09-19T08:05:00;17.80;81.70
70947;DHT22;58605;48.700;8.760;2023-09-19T08:07:26;17.80;80.80
70947;DHT22;58605;48.700;8.760;2023-09-19T08:09:54;17.70;80.40
70947;DHT22;58605;48.700;8.760;2023-09-19T08:12:20;17.70;80.20
70947;DHT22;58605;48.700;8.760;2023-09-19T08:14:50;17.70;81.60
70947;DHT22;58605;48.700;8.760;2023-09-19T08:17:16;17.70;80.70
70947;DHT22;58605;48.700;8.760;2023-09-19T08:19:45;17.70;80.50
70947;DHT22;58605;48.700;8.760;2023-09-19T08:22:12;17.60;79.80
70947;DHT22;58605;48.700;8.760;2023-09-19T08:24:38;17.70;79.50
70947;DHT22;58605;48.700;8.760;2023-09-19T08:27:04;17.60;79.20
70947;DHT22;58605;48.700;8.760;2023-09-19T08:29:31;17.60;78.50
70947;DHT22;58605;48.700;8.760;2023-09-19T08:31:58;17.60;78.30
70947;DHT22;58605;48.700;8.760;2023-09-19T08:34:25;17.60;78.70
70947;DHT22;58605;48.700;8.760;2023-09-19T08:36:53;17.60;78.30
70947;DHT22;58605;48.700;8.760;2023-09-19T08:39:22;17.60;79.00
70947;DHT22;58605;48.700;8.760;2023-09-19T08:41:49;17.60;79.40
70947;DHT22;58605;48.700;8.760;2023-09-19T08:44:15;17.70;79.00
70947;DHT22;58605;48.700;8.760;2023-09-19T08:46:42;17.80;79.80
70947;DHT22;58605;48.700;8.760;2023-09-19T08:49:27;17.90;76.60
70947;DHT22;58605;48.700;8.760;2023-09-19T08:52:07;17.90;78.00
70947;DHT22;58605;48.700;8.760;2023-09-19T08:54:38;18.00;76.00
70947;DHT22;58605;48.700;8.760;2023-09-19T08:57:07;18.00;76.80
70947;DHT22;58605;48.700;8.760;2023-09-19T08:59:37;18.00;78.50
70947;DHT22;58605;48.700;8.760;2023-09-19T09:02:11;18.10;76.70
70947;DHT22;58605;48.700;8.760;2023-09-19T09:04:39;18.10;77.40
70947;DHT22;58605;48.700;8.760;2023-09-19T09:07:10;18.20;76.00
70947;DHT22;58605;48.700;8.760;2023-09-19T09:09:38;18.30;75.50
70947;DHT22;58605;48.700;8.760;2023-09-19T09:12:09;18.40;75.60
70947;DHT22;58605;48.700;8.760;2023-09-19T09:14:38;18.40;75.50
70947;DHT22;58605;48.700;8.760;2023-09-19T09:17:05;18.50;74.40
70947;DHT22;58605;48.700;8.760;2023-09-19T09:19:38;18.40;74.70
70947;DHT22;58605;48.700;8.760;2023-09-19T09:22:10;18.40;75.30
70947;DHT22;58605;48.700;8.760;2023-09-19T09:24:37;18.50;74.20
70947;DHT22;58605;48.700;8.760;2023-09-19T09:27:06;18.50;73.20
70947;DHT22;58605;48.700;8.760;2023-09-19T09:29:43;18.50;75.10
70947;DHT22;58605;48.700;8.760;2023-09-19T09:32:20;18.60;71.60
70947;DHT22;58605;48.700;8.760;2023-09-19T09:34:49;18.60;73.10
70947;DHT22;58605;48.700;8.760;2023-09-19T09:37:17;18.50;74.10
70947;DHT22;58605;48.700;8.760;2023-09-19T09:39:52;18.60;73.80
70947;DHT22;58605;48.700;8.760;2023-09-19T09:42:43;18.60;72.40
70947;DHT22;58605;48.700;8.760;2023-09-19T09:45:13;18.70;73.00
70947;DHT22;58605;48.700;8.760;2023-09-19T09:47:44;18.70;72.10
70947;DHT22;58605;48.700;8.760;2023-09-19T09:50:27;18.50;75.00
70947;DHT22;58605;48.700;8.760;2023-09-19T09:52:57;18.50;71.70
70947;DHT22;58605;48.700;8.760;2023-09-19T09:55:59;18.40;72.30
70947;DHT22;58605;48.700;8.760;2023-09-19T09:58:26;18.40;72.20
70947;DHT22;58605;48.700;8.760;2023-09-19T10:00:56;18.40;72.60
70947;DHT22;58605;48.700;8.760;2023-09-19T10:03:32;18.30;73.60
70947;DHT22;58605;48.700;8.760;2023-09-19T10:06:00;18.50;72.10
70947;DHT22;58605;48.700;8.760;2023-09-19T10:08:38;18.50;71.50
70947;DHT22;58605;48.700;8.760;2023-09-19T10:11:15;18.40;71.50
70947;DHT22;58605;48.700;8.760;2023-09-19T10:13:43;18.40;69.70
70947;DHT22;58605;48.700;8.760;2023-09-19T10:16:12;18.30;73.10
70947;DHT22;58605;48.700;8.760;2023-09-19T10:18:41;18.40;72.80
70947;DHT22;58605;48.700;8.760;2023-09-19T10:21:10;18.30;73.00
70947;DHT22;58605;48.700;8.760;2023-09-19T10:23:38;18.50;72.70
70947;DHT22;58605;48.700;8.760;2023-09-19T10:26:08;18.50;71.50
70947;DHT22;58605;48.700;8.760;2023-09-19T10:28:35;18.50;72.30
70947;DHT22;58605;48.700;8.760;2023-09-19T10:31:04;18.50;71.00
70947;DHT22;58605;48.700;8.760;2023-09-19T10:33:35;18.40;69.90
70947;DHT22;58605;48.700;8.760;2023-09-19T10:36:05;18.40;70.50
70947;DHT22;58605;48.700;8.760;2023-09-19T10:38:33;18.30;71.10
70947;DHT22;58605;48.700;8.760;2023-09-19T10:41:03;18.30;70.60
70947;DHT22;58605;48.700;8.760;2023-09-19T10:43:31;18.30;71.20
70947;DHT22;58605;48.700;8.760;2023-09-19T10:46:01;18.30;70.20
70947;DHT22;58605;48.700;8.760;2023-09-19T10:48:29;18.40;70.40
70947;DHT22;58605;48.700;8.760;2023-09-19T10:51:02;18.40;70.10
70947;DHT22;58605;48.700;8.760;2023-09-19T10:53:39;18.40;68.30
70947;DHT22;58605;48.700;8.760;2023-09-19T10:56:08;18.50;70.00
70947;DHT22;58605;48.700;8.760;2023-09-19T10:58:43;18.50;69.70
70947;DHT22;58605;48.700;8.760;2023-09-19T11:01:11;18.50;67.90
70947;DHT22;58605;48.700;8.760;2023-09-19T11:03:38;18.50;68.10
70947;DHT22;58605;48.700;8.760;2023-09-19T11:06:11;18.50;68.70
70947;DHT22;58605;48.700;8.760;2023-09-19T11:09:05;18.50;68.40
70947;DHT22;58605;48.700;8.760;2023-09-19T11:11:43;18.50;69.50
70947;DHT22;58605;48.700;8.760;2023-09-19T11:20:24;18.70;67.70
70947;DHT22;58605;48.700;8.760;2023-09-19T11:23:21;18.70;69.00
70947;DHT22;58605;48.700;8.760;2023-09-19T11:25:49;18.60;69.10
70947;DHT22;58605;48.700;8.760;2023-09-19T11:28:32;18.60;69.50
70947;DHT22;58605;48.700;8.760;2023-09-19T11:30:58;18.70;70.20
70947;DHT22;58605;48.700;8.760;2023-09-19T11:33:26;18.70;69.40
70947;DHT22;58605;48.700;8.760;2023-09-19T11:36:08;18.90;67.80
70947;DHT22;58605;48.700;8.760;2023-09-19T11:38:57;19.10;64.80
70947;DHT22;58605;48.700;8.760;2023-09-19T11:41:39;19.00;68.40
70947;DHT22;58605;48.700;8.760;2023-09-19T11:44:35;19.00;68.20
70947;DHT22;58605;48.700;8.760;2023-09-19T11:47:06;19.20;69.10
70947;DHT22;58605;48.700;8.760;2023-09-19T11:49:32;19.10;68.00
70947;DHT22;58605;48.700;8.760;2023-09-19T11:52:00;19.10;68.00
70947;DHT22;58605;48.700;8.760;2023-09-19T11:54:27;19.20;66.30
70947;DHT22;58605;48.700;8.760;2023-09-19T11:56:58;19.20;67.80
70947;DHT22;58605;48.700;8.760;2023-09-19T11:59:26;19.20;67.20
70947;DHT22;58605;48.700;8.760;2023-09-19T12:01:57;19.30;66.90
70947;DHT22;58605;48.700;8.760;2023-09-19T12:04:34;19.20;68.30
70947;DHT22;58605;48.700;8.760;2023-09-19T12:07:05;19.30;66.10
70947;DHT22;58605;48.700;8.760;2023-09-19T12:09:32;19.30;65.20
70947;DHT22;58605;48.700;8.760;2023-09-19T12:11:58;19.40;65.80
70947;DHT22;58605;48.700;8.760;2023-09-19T12:14:24;19.40;66.70
70947;DHT22;58605;48.700;8.760;2023-09-19T12:16:57;19.40;66.30
70947;DHT22;58605;48.700;8.760;2023-09-19T12:19:25;19.40;66.70
70947;DHT22;58605;48.700;8.760;2023-09-19T12:21:58;19.40;66.20
70947;DHT22;58605;48.700;8.760;2023-09-19T12:24:25;19.40;65.20
70947;DHT22;58605;48.700;8.760;2023-09-19T12:27:00;19.20;67.90
70947;DHT22;58605;48.700;8.760;2023-09-19T12:29:30;19.20;66.40
70947;DHT22;58605;48.700;8.760;2023-09-19T12:31:58;19.10;66.60
70947;DHT22;58605;48.700;8.760;2023-09-19T12:34:26;19.20;65.90
70947;DHT22;58605;48.700;8.760;2023-09-19T12:37:09;19.20;65.90
70947;DHT22;58605;48.700;8.760;2023-09-19T12:39:43;19.30;66.00
70947;DHT22;58605;48.700;8.760;2023-09-19T12:42:11;19.40;65.00
70947;DHT22;58605;48.700;8.760;2023-09-19T12:44:41;19.40;65.80
70947;DHT22;58605;48.700;8.760;2023-09-19T12:47:11;19.40;65.60
70947;DHT22;58605;48.700;8.760;2023-09-19T12:50:05;19.20;66.50
70947;DHT22;58605;48.700;8.760;2023-09-19T12:52:39;19.20;65.20
70947;DHT22;58605;48.700;8.760;2023-09-19T12:55:06;19.20;65.60
70947;DHT22;58605;48.700;8.760;2023-09-19T12:57:33;19.20;65.90
70947;DHT22;58605;48.700;8.760;2023-09-19T13:00:00;19.10;66.60
70947;DHT22;58605;48.700;8.760;2023-09-19T13:02:28;19.20;65.90
70947;DHT22;58605;48.700;8.760;2023-09-19T13:04:54;19.20;66.70
70947;DHT22;58605;48.700;8.760;2023-09-19T13:07:41;19.30;66.20
70947;DHT22;58605;48.700;8.760;2023-09-19T13:10:11;19.40;65.40
70947;DHT22;58605;48.700;8.760;2023-09-19T13:12:41;19.40;66.10
70947;DHT22;58605;48.700;8.760;2023-09-19T13:15:11;19.40;66.20
70947;DHT22;58605;48.700;8.760;2023-09-19T13:17:47;19.40;66.20
70947;DHT22;58605;48.700;8.760;2023-09-19T13:20:23;19.30;67.00
70947;DHT22;58605;48.700;8.760;2023-09-19T13:22:58;19.30;67.50
70947;DHT22;58605;48.700;8.760;2023-09-19T13:25:26;19.40;67.10
70947;DHT22;58605;48.700;8.760;2023-09-19T13:27:56;19.40;66.80
70947;DHT22;58605;48.700;8.760;2023-09-19T13:30:23;19.50;66.40
70947;DHT22;58605;48.700;8.760;2023-09-19T13:33:03;19.50;66.50
70947;DHT22;58605;48.700;8.760;2023-09-19T13:35:31;19.40;65.00
70947;DHT22;58605;48.700;8.760;2023-09-19T13:37:58;19.50;65.80
70947;DHT22;58605;48.700;8.760;2023-09-19T13:40:24;19.60;66.30
70947;DHT22;58605;48.700;8.760;2023-09-19T13:42:56;19.60;65.60
70947;DHT22;58605;48.700;8.760;2023-09-19T13:45:22;19.70;62.90
70947;DHT22;58605;48.700;8.760;2023-09-19T13:47:52;19.50;65.10
70947;DHT22;58605;48.700;8.760;2023-09-19T13:50:18;19.50;64.60
70947;DHT22;58605;48.700;8.760;2023-09-19T13:52:49;19.50;65.30
70947;DHT22;58605;48.700;8.760;2023-09-19T13:55:17;19.40;65.10
70947;DHT22;58605;48.700;8.760;2023-09-19T13:57:46;19.40;65.50
70947;DHT22;58605;48.700;8.760;2023-09-19T14:00:13;19.20;68.30
70947;DHT22;58605;48.700;8.760;2023-09-19T14:02:41;19.10;66.80
70947;DHT22;58605;48.700;8.760;2023-09-19T14:05:12;19.10;66.50
70947;DHT22;58605;48.700;8.760;2023-09-19T14:07:40;19.10;66.40
70947;DHT22;58605;48.700;8.760;2023-09-19T14:10:07;19.10;66.50
70947;DHT22;58605;48.700;8.760;2023-09-19T14:12:34;19.10;65.80
70947;DHT22;58605;48.700;8.760;2023-09-19T14:15:01;19.10;65.60
70947;DHT22;58605;48.700;8.760;2023-09-19T14:17:27;19.20;65.00
70947;DHT22;58605;48.700;8.760;2023-09-19T14:19:53;19.20;65.30
70947;DHT22;58605;48.700;8.760;2023-09-19T14:22:21;19.20;65.90
70947;DHT22;58605;48.700;8.760;2023-09-19T14:24:47;19.10;65.70
70947;DHT22;58605;48.700;8.760;2023-09-19T14:27:13;19.10;65.40
70947;DHT22;58605;48.700;8.760;2023-09-19T14:29:40;19.10;65.50
70947;DHT22;58605;48.700;8.760;2023-09-19T14:32:07;19.10;65.90
70947;DHT22;58605;48.700;8.760;2023-09-19T14:34:33;19.20;65.30
70947;DHT22;58605;48.700;8.760;2023-09-19T14:36:59;19.20;65.00
70947;DHT22;58605;48.700;8.760;2023-09-19T14:39:27;19.20;65.20
70947;DHT22;58605;48.700;8.760;2023-09-19T14:41:54;19.20;65.20
70947;DHT22;58605;48.700;8.760;2023-09-19T14:44:20;19.20;64.80
70947;DHT22;58605;48.700;8.760;2023-09-19T14:46:46;19.20;65.50
70947;DHT22;58605;48.700;8.760;2023-09-19T14:49:12;19.20;65.50
70947;DHT22;58605;48.700;8.760;2023-09-19T14:51:38;19.10;66.20
70947;DHT22;58605;48.700;8.760;2023-09-19T14:54:05;19.10;65.80
70947;DHT22;58605;48.700;8.760;2023-09-19T14:56:35;19.10;65.70
70947;DHT22;58605;48.700;8.760;2023-09-19T14:59:01;19.20;65.80
70947;DHT22;58605;48.700;8.760;2023-09-19T15:01:28;19.20;66.20
70947;DHT22;58605;48.700;8.760;2023-09-19T15:03:55;19.20;66.00
70947;DHT22;58605;48.700;8.760;2023-09-19T15:06:21;19.40;65.10
70947;DHT22;58605;48.700;8.760;2023-09-19T15:08:47;19.50;64.70
70947;DHT22;58605;48.700;8.760;2023-09-19T15:11:14;19.60;63.40
70947;DHT22;58605;48.700;8.760;2023-09-19T15:13:44;19.60;64.00
70947;DHT22;58605;48.700;8.760;2023-09-19T15:16:11;19.70;63.30
70947;DHT22;58605;48.700;8.760;2023-09-19T15:18:39;19.70;63.50
70947;DHT22;58605;48.700;8.760;2023-09-19T15:21:06;19.80;62.10
70947;DHT22;58605;48.700;8.760;2023-09-19T15:23:33;19.90;62.00
70947;DHT22;58605;48.700;8.760;2023-09-19T15:26:00;20.00;61.90
70947;DHT22;58605;48.700;8.760;2023-09-19T15:28:27;19.90;62.80
70947;DHT22;58605;48.700;8.760;2023-09-19T15:30:59;19.70;64.10
70947;DHT22;58605;48.700;8.760;2023-09-19T15:33:26;19.50;65.40
70947;DHT22;58605;48.700;8.760;2023-09-19T15:36:03;19.30;65.70
70947;DHT22;58605;48.700;8.760;2023-09-19T15:38:29;19.40;65.50
70947;DHT22;58605;48.700;8.760;2023-09-19T15:40:55;19.30;65.90
70947;DHT22;58605;48.700;8.760;2023-09-19T15:43:21;19.20;65.70
70947;DHT22;58605;48.700;8.760;2023-09-19T15:45:48;19.20;65.90
70947;DHT22;58605;48.700;8.760;2023-09-19T15:48:16;19.20;66.20
70947;DHT22;58605;48.700;8.760;2023-09-19T15:50:42;19.30;65.90
70947;DHT22;58605;48.700;8.760;2023-09-19T15:53:10;19.20;66.00
70947;DHT22;58605;48.700;8.760;2023-09-19T15:55:39;19.20;66.50